createdAt,value
2022-10-23T00:00:10.078Z,8.6
2022-10-23T00:03:10.058Z,8.6
2022-10-23T00:06:09.646Z,8.7
2022-10-23T00:09:09.462Z,8.6
2022-10-23T00:12:09.498Z,8.7
2022-10-23T00:15:11.825Z,8.6
2022-10-23T00:18:09.595Z,8.6
2022-10-23T00:21:10.893Z,8.6
2022-10-23T00:27:12.146Z,8.6
2022-10-23T00:30:10.039Z,8.8
2022-10-23T00:33:09.477Z,8.8
2022-10-23T00:36:09.484Z,8.8
2022-10-23T00:39:09.503Z,8.8
2022-10-23T00:42:10.813Z,8.9
2022-10-23T00:45:10.173Z,8.9
2022-10-23T00:48:09.627Z,9.1
2022-10-23T00:51:10.057Z,9.1
2022-10-23T00:54:32.484Z,9.1
2022-10-23T00:57:09.689Z,9.2
2022-10-23T01:00:09.530Z,9.2
2022-10-23T01:03:09.689Z,9.1
2022-10-23T01:06:09.556Z,9.2
2022-10-23T01:09:09.906Z,9.2
2022-10-23T01:12:09.736Z,9.3
2022-10-23T01:15:09.593Z,9.4
2022-10-23T01:18:10.495Z,9.4
2022-10-23T01:21:09.754Z,9.4
2022-10-23T01:24:09.480Z,9.4
2022-10-23T01:27:09.547Z,9.3
2022-10-23T01:30:09.532Z,9.3
2022-10-23T01:33:09.532Z,9.3
2022-10-23T01:36:11.392Z,9.3
2022-10-23T01:39:10.820Z,9.3
2022-10-23T01:42:10.839Z,9.2
2022-10-23T01:45:09.529Z,9.1
2022-10-23T01:48:09.708Z,9.1
2022-10-23T01:51:09.938Z,9.1
2022-10-23T01:54:10.878Z,9.1
2022-10-23T01:57:10.466Z,9.1
2022-10-23T02:00:09.566Z,9.1
2022-10-23T02:03:09.540Z,9.1
2022-10-23T02:06:09.539Z,8.9
2022-10-23T02:09:09.471Z,8.9
2022-10-23T02:12:09.647Z,8.8
2022-10-23T02:15:10.087Z,8.7
2022-10-23T02:18:09.521Z,8.6
2022-10-23T02:21:09.504Z,8.6
2022-10-23T02:24:09.501Z,8.5
2022-10-23T02:27:09.500Z,8.4
2022-10-23T02:30:09.539Z,8.4
2022-10-23T02:33:09.479Z,8.4
2022-10-23T02:36:09.498Z,8.3
2022-10-23T02:39:09.490Z,8.2
2022-10-23T02:42:09.512Z,8
2022-10-23T02:45:09.534Z,7.9
2022-10-23T02:48:09.501Z,8
2022-10-23T02:51:09.517Z,8.1
2022-10-23T02:54:09.577Z,8.1
2022-10-23T02:57:09.519Z,8
2022-10-23T03:00:09.511Z,8.1
2022-10-23T03:03:09.487Z,8.1
2022-10-23T03:06:09.553Z,8.2
2022-10-23T03:09:09.575Z,8.1
2022-10-23T03:12:09.543Z,7.9
2022-10-23T03:15:09.554Z,7.9
2022-10-23T03:18:09.591Z,7.9
2022-10-23T03:21:09.529Z,7.9
2022-10-23T03:24:09.475Z,8.1
2022-10-23T03:27:09.559Z,8
2022-10-23T03:30:09.515Z,8
2022-10-23T03:33:09.547Z,7.9
2022-10-23T03:36:09.575Z,8
2022-10-23T03:39:09.522Z,7.9
2022-10-23T03:42:09.451Z,7.8
2022-10-23T03:45:09.483Z,7.7
2022-10-23T03:48:09.504Z,7.7
2022-10-23T03:51:09.469Z,7.7
2022-10-23T03:54:09.548Z,7.7
2022-10-23T03:57:09.450Z,7.8
2022-10-23T04:00:09.596Z,7.9
2022-10-23T04:03:09.557Z,7.9
2022-10-23T04:06:09.537Z,7.7
2022-10-23T04:12:09.508Z,7.4
2022-10-23T04:15:09.512Z,7.3
2022-10-23T04:18:09.479Z,7.4
2022-10-23T04:21:09.499Z,7.3
2022-10-23T04:24:09.527Z,7.3
2022-10-23T04:27:09.603Z,7.2
2022-10-23T04:30:09.503Z,7.4
2022-10-23T04:33:09.462Z,7.6
2022-10-23T04:36:09.520Z,7.7
2022-10-23T04:39:09.461Z,7.7
2022-10-23T04:42:09.521Z,7.8
2022-10-23T04:45:09.488Z,7.8
2022-10-23T04:48:09.517Z,7.7
2022-10-23T04:51:09.476Z,7.7
2022-10-23T04:54:09.517Z,7.7
2022-10-23T04:57:09.455Z,7.6
2022-10-23T05:00:09.676Z,7.7
2022-10-23T05:03:09.456Z,7.8
2022-10-23T05:06:09.490Z,7.9
2022-10-23T05:09:09.508Z,7.9
2022-10-23T05:12:09.482Z,8
2022-10-23T05:15:09.606Z,8.1
2022-10-23T05:18:09.471Z,8.3
2022-10-23T05:21:09.608Z,8.2
2022-10-23T05:27:09.546Z,8.1
2022-10-23T05:30:09.504Z,8.1
2022-10-23T05:33:09.556Z,8
2022-10-23T05:36:09.527Z,7.9
2022-10-23T05:39:09.502Z,7.9
2022-10-23T05:42:09.507Z,7.7
2022-10-23T05:45:09.606Z,7.7
2022-10-23T05:48:41.034Z,7.6
2022-10-23T05:51:09.473Z,7.5
2022-10-23T05:54:09.534Z,7.5
2022-10-23T05:57:09.796Z,7.5
2022-10-23T06:00:09.680Z,7.5
2022-10-23T06:03:09.533Z,7.5
2022-10-23T06:06:09.647Z,7.5
2022-10-23T06:09:09.532Z,7.5
2022-10-23T06:12:09.556Z,7.5
2022-10-23T06:15:10.228Z,7.4
2022-10-23T06:18:09.709Z,7.5
2022-10-23T06:21:09.549Z,7.6
2022-10-23T06:24:09.535Z,7.6
2022-10-23T06:27:09.558Z,7.7
2022-10-23T06:30:09.522Z,7.7
2022-10-23T06:33:15.307Z,7.8
2022-10-23T06:36:09.505Z,7.9
2022-10-23T06:42:09.616Z,8.1
2022-10-23T06:45:15.939Z,8.2
2022-10-23T06:48:09.587Z,8.4
2022-10-23T06:51:09.561Z,8.5
2022-10-23T06:54:09.563Z,8.6
2022-10-23T06:57:09.601Z,8.6
2022-10-23T07:00:09.671Z,8.8
2022-10-23T07:03:09.624Z,8.8
2022-10-23T07:06:09.557Z,8.9
2022-10-23T07:09:09.515Z,9
2022-10-23T07:12:09.613Z,9.1
2022-10-23T07:15:09.593Z,9.2
2022-10-23T07:18:09.595Z,9.2
2022-10-23T07:21:09.617Z,9.3
2022-10-23T07:24:09.584Z,9.3
2022-10-23T07:27:09.602Z,9.4
2022-10-23T07:30:09.619Z,9.5
2022-10-23T07:33:09.683Z,9.6
2022-10-23T07:36:09.567Z,9.8
2022-10-23T07:39:09.579Z,9.9
2022-10-23T07:42:09.548Z,10
2022-10-23T07:45:09.751Z,10.1
2022-10-23T07:48:09.614Z,10.3
2022-10-23T07:51:09.569Z,10.4
2022-10-23T07:54:09.567Z,10.5
2022-10-23T07:57:09.551Z,10.6
2022-10-23T08:00:09.583Z,10.7
2022-10-23T08:03:09.564Z,10.8
2022-10-23T08:06:09.522Z,10.9
2022-10-23T08:09:15.615Z,11.1
2022-10-23T08:12:09.633Z,11.1
2022-10-23T08:15:09.573Z,11.1
2022-10-23T08:18:09.579Z,11.2
2022-10-23T08:21:09.525Z,11.3
2022-10-23T08:24:09.572Z,11.4
2022-10-23T08:27:09.513Z,11.6
2022-10-23T08:30:09.751Z,11.7
2022-10-23T08:33:09.503Z,11.9
2022-10-23T08:36:09.611Z,12.1
2022-10-23T08:39:09.555Z,12.4
2022-10-23T08:45:09.569Z,12.6
2022-10-23T08:48:09.530Z,12.9
2022-10-23T08:51:09.605Z,12.9
2022-10-23T08:54:09.576Z,13.1
2022-10-23T08:57:09.525Z,13.2
2022-10-23T09:00:09.554Z,13.4
2022-10-23T09:03:09.730Z,13.6
2022-10-23T09:06:09.581Z,14.1
2022-10-23T09:09:09.554Z,14.4
2022-10-23T09:12:09.588Z,14.6
2022-10-23T09:15:09.557Z,14.7
2022-10-23T09:18:09.548Z,14.7
2022-10-23T09:21:09.525Z,14.6
2022-10-23T09:24:09.609Z,14.6
2022-10-23T09:27:09.699Z,14.7
2022-10-23T09:30:09.550Z,14.9
2022-10-23T09:33:09.538Z,14.9
2022-10-23T09:36:09.564Z,15.1
2022-10-23T09:39:09.597Z,15.4
2022-10-23T09:42:09.595Z,15.6
2022-10-23T09:45:09.596Z,15.5
2022-10-23T09:48:09.566Z,15.7
2022-10-23T09:51:09.586Z,15.8
2022-10-23T09:54:09.561Z,15.6
2022-10-23T09:57:09.549Z,15.6
2022-10-23T10:00:09.780Z,15.7
2022-10-23T10:03:09.520Z,15.8
2022-10-23T10:06:09.537Z,15.8
2022-10-23T10:09:09.577Z,15.8
2022-10-23T10:12:09.580Z,15.8
2022-10-23T10:15:09.548Z,15.8
2022-10-23T10:18:09.544Z,15.8
2022-10-23T10:21:09.557Z,15.8
2022-10-23T10:24:09.613Z,15.7
2022-10-23T10:27:09.559Z,15.6
2022-10-23T10:30:09.672Z,15.6
2022-10-23T10:33:09.519Z,15.6
2022-10-23T10:36:09.590Z,15.8
2022-10-23T10:39:09.496Z,15.8
2022-10-23T10:42:09.540Z,16.1
2022-10-23T10:45:09.530Z,16.2
2022-10-23T10:48:09.570Z,16.2
2022-10-23T10:51:09.570Z,16.3
2022-10-23T10:54:09.612Z,16.3
2022-10-23T10:57:09.567Z,16.6
2022-10-23T11:00:09.649Z,16.9
2022-10-23T11:03:09.559Z,17
2022-10-23T11:06:09.621Z,17.1
2022-10-23T11:09:29.695Z,17.4
2022-10-23T11:12:09.569Z,17.8
2022-10-23T11:15:09.556Z,18.3
2022-10-23T11:18:09.541Z,18.8
2022-10-23T11:21:09.536Z,19.1
2022-10-23T11:27:09.555Z,19.7
2022-10-23T11:30:09.614Z,19.8
2022-10-23T11:33:09.588Z,20.1
2022-10-23T11:36:09.664Z,20.3
2022-10-23T11:39:09.556Z,20.2
2022-10-23T11:42:09.527Z,21.1
2022-10-23T11:45:09.611Z,21.6
2022-10-23T11:48:09.592Z,21.8
2022-10-23T11:51:14.015Z,21.8
2022-10-23T11:54:09.542Z,21.6
2022-10-23T11:57:13.650Z,21.4
2022-10-23T12:00:09.626Z,21
2022-10-23T12:03:09.930Z,20.8
2022-10-23T12:06:09.606Z,20.8
2022-10-23T12:09:09.576Z,20.8
2022-10-23T12:12:09.648Z,20.7
2022-10-23T12:15:09.627Z,20.7
2022-10-23T12:18:09.622Z,20.5
2022-10-23T12:21:09.588Z,20.3
2022-10-23T12:24:09.593Z,20.2
2022-10-23T12:27:09.600Z,19.9
2022-10-23T12:30:09.669Z,19.6
2022-10-23T12:33:09.553Z,19.5
2022-10-23T12:36:09.590Z,19.4
2022-10-23T12:39:09.733Z,19.4
2022-10-23T12:42:09.636Z,19.3
2022-10-23T12:45:09.526Z,19.2
2022-10-23T12:48:09.572Z,19.2
2022-10-23T12:51:09.531Z,19.2
2022-10-23T12:54:09.492Z,19.3
2022-10-23T12:57:09.500Z,19.3
2022-10-23T13:00:09.622Z,19.4
2022-10-23T13:03:09.585Z,19.4
2022-10-23T13:06:09.772Z,19.4
2022-10-23T13:09:09.582Z,19.4
2022-10-23T13:12:09.563Z,19.3
2022-10-23T13:15:09.574Z,19.3
2022-10-23T13:18:09.580Z,19.3
2022-10-23T13:24:09.579Z,19.4
2022-10-23T13:27:09.589Z,19.3
2022-10-23T13:30:15.230Z,19.3
2022-10-23T13:33:09.588Z,19.2
2022-10-23T13:36:09.526Z,19.1
2022-10-23T13:39:09.601Z,19.1
2022-10-23T13:42:09.577Z,19
2022-10-23T13:45:09.554Z,18.9
2022-10-23T13:48:09.556Z,18.8
2022-10-23T13:51:09.528Z,18.8
2022-10-23T13:54:09.491Z,18.7
2022-10-23T13:57:09.552Z,18.6
2022-10-23T14:00:09.686Z,18.5
2022-10-23T14:03:09.594Z,18.4
2022-10-23T14:06:09.525Z,18.3
2022-10-23T14:09:09.537Z,18.3
2022-10-23T14:12:09.602Z,18.3
2022-10-23T14:15:09.539Z,18.3
2022-10-23T14:18:17.168Z,18.3
2022-10-23T14:21:09.585Z,18.3
2022-10-23T14:24:09.563Z,18.3
2022-10-23T14:27:09.761Z,18.2
2022-10-23T14:30:09.552Z,18.1
2022-10-23T14:33:09.544Z,18.1
2022-10-23T14:36:09.744Z,18
2022-10-23T14:39:09.747Z,17.9
2022-10-23T14:42:09.686Z,17.8
2022-10-23T14:45:09.578Z,17.7
2022-10-23T14:48:09.524Z,17.6
2022-10-23T14:51:09.582Z,17.6
2022-10-23T14:54:09.679Z,17.5
2022-10-23T14:57:09.518Z,17.5
2022-10-23T15:00:09.988Z,17.4
2022-10-23T15:03:09.534Z,17.4
2022-10-23T15:06:10.517Z,17.3
2022-10-23T15:09:09.615Z,17.3
2022-10-23T15:12:09.524Z,17.2
2022-10-23T15:15:09.582Z,17.1
2022-10-23T15:18:09.543Z,17.1
2022-10-23T15:21:09.541Z,17.1
2022-10-23T15:24:09.593Z,17
2022-10-23T15:30:09.597Z,16.8
2022-10-23T15:33:09.549Z,16.7
2022-10-23T15:36:09.554Z,16.6
2022-10-23T15:39:09.547Z,16.5
2022-10-23T15:42:09.620Z,16.4
2022-10-23T15:45:09.531Z,16.3
2022-10-23T15:48:09.606Z,16.2
2022-10-23T15:51:09.518Z,16
2022-10-23T15:54:09.543Z,15.9
2022-10-23T15:57:09.551Z,15.8
2022-10-23T16:00:09.833Z,15.7
2022-10-23T16:03:09.538Z,15.6
2022-10-23T16:06:09.614Z,15.5
2022-10-23T16:09:09.592Z,15.5
2022-10-23T16:12:09.541Z,15.4
2022-10-23T16:15:09.494Z,15.4
2022-10-23T16:18:09.484Z,15.3
2022-10-23T16:21:09.460Z,15.2
2022-10-23T16:24:09.499Z,15.1
2022-10-23T16:27:09.571Z,14.9
2022-10-23T16:30:09.482Z,14.9
2022-10-23T16:33:09.571Z,14.8
2022-10-23T16:36:09.554Z,14.7
2022-10-23T16:39:09.556Z,14.7
2022-10-23T16:42:09.817Z,14.6
2022-10-23T16:45:09.497Z,14.6
2022-10-23T16:48:09.492Z,14.6
2022-10-23T16:51:09.552Z,14.6
2022-10-23T16:54:09.926Z,14.6
2022-10-23T16:57:09.522Z,14.6
2022-10-23T17:00:09.562Z,14.5
2022-10-23T17:03:09.506Z,14.5
2022-10-23T17:06:15.776Z,14.5
2022-10-23T17:09:09.550Z,14.4
2022-10-23T17:12:09.569Z,14.4
2022-10-23T17:15:09.630Z,14.4
2022-10-23T17:18:09.505Z,14.3
2022-10-23T17:21:09.491Z,14.3
2022-10-23T17:27:09.650Z,14.2
2022-10-23T17:30:14.983Z,14.1
2022-10-23T17:33:10.962Z,14.1
2022-10-23T17:36:09.550Z,14.1
2022-10-23T17:39:09.510Z,14
2022-10-23T17:42:09.513Z,13.9
2022-10-23T17:45:09.524Z,13.9
2022-10-23T17:48:09.601Z,13.9
2022-10-23T17:51:09.484Z,13.8
2022-10-23T17:54:09.512Z,13.8
2022-10-23T17:57:09.472Z,13.8
2022-10-23T18:00:09.626Z,13.8
2022-10-23T18:03:09.481Z,13.8
2022-10-23T18:06:09.527Z,13.8
2022-10-23T18:09:09.483Z,13.7
2022-10-23T18:12:09.561Z,13.8
2022-10-23T18:15:09.554Z,13.8
2022-10-23T18:18:09.505Z,13.9
2022-10-23T18:21:09.618Z,14
2022-10-23T18:24:09.571Z,14
2022-10-23T18:27:09.738Z,14.1
2022-10-23T18:30:09.552Z,14.2
2022-10-23T18:33:09.532Z,14.1
2022-10-23T18:36:09.507Z,14.2
2022-10-23T18:39:09.570Z,14.1
2022-10-23T18:42:09.576Z,14.1
2022-10-23T18:45:09.488Z,13.9
2022-10-23T18:48:09.509Z,13.9
2022-10-23T18:51:11.169Z,13.8
2022-10-23T18:54:09.533Z,13.8
2022-10-23T18:57:09.570Z,13.7
2022-10-23T19:00:09.604Z,13.6
2022-10-23T19:03:09.481Z,13.6
2022-10-23T19:06:09.696Z,13.5
2022-10-23T19:09:09.518Z,13.5
2022-10-23T19:12:09.945Z,13.4
2022-10-23T19:15:09.505Z,13.4
2022-10-23T19:18:09.530Z,13.4
2022-10-23T19:21:09.562Z,13.4
2022-10-23T19:24:09.459Z,13.4
2022-10-23T19:27:09.540Z,13.4
2022-10-23T19:30:09.488Z,13.4
2022-10-23T19:33:09.693Z,13.3
2022-10-23T19:36:25.855Z,13.3
2022-10-23T19:39:09.567Z,13.3
2022-10-23T19:42:09.485Z,13.3
2022-10-23T19:45:09.493Z,13.3
2022-10-23T19:48:09.487Z,13.3
2022-10-23T19:51:09.577Z,13.3
2022-10-23T19:54:09.557Z,13.3
2022-10-23T19:57:09.563Z,13.3
2022-10-23T20:00:09.523Z,13.3
2022-10-23T20:03:09.557Z,13.3
2022-10-23T20:06:09.523Z,13.3
2022-10-23T20:09:09.457Z,13.3
2022-10-23T20:12:09.540Z,13.3
2022-10-23T20:15:09.557Z,13.2
2022-10-23T20:18:09.517Z,13.2
2022-10-23T20:21:09.530Z,13.2
2022-10-23T20:24:09.552Z,13.2
2022-10-23T20:27:09.508Z,13.2
2022-10-23T20:30:09.579Z,13.2
2022-10-23T20:33:09.522Z,13.2
2022-10-23T20:36:09.511Z,13.2
2022-10-23T20:39:09.642Z,13.3
2022-10-23T20:42:09.617Z,13.4
2022-10-23T20:45:09.867Z,13.6
2022-10-23T20:48:09.654Z,13.8
2022-10-23T20:51:09.614Z,13.9
2022-10-23T20:54:09.543Z,14
2022-10-23T20:57:09.537Z,14.1
2022-10-23T21:00:09.648Z,14.1
2022-10-23T21:03:09.516Z,14.1
2022-10-23T21:06:09.619Z,14.1
2022-10-23T21:12:09.524Z,14.1
2022-10-23T21:15:09.570Z,14.1
2022-10-23T21:18:51.936Z,14
2022-10-23T21:21:09.633Z,13.8
2022-10-23T21:24:09.546Z,13.8
2022-10-23T21:27:09.544Z,13.7
2022-10-23T21:30:09.712Z,13.6
2022-10-23T21:33:09.546Z,13.6
2022-10-23T21:36:22.800Z,13.6
2022-10-23T21:39:09.510Z,13.7
2022-10-23T21:42:09.549Z,13.7
2022-10-23T21:45:09.552Z,13.6
2022-10-23T21:48:09.544Z,13.6
2022-10-23T21:51:09.562Z,13.5
2022-10-23T21:54:09.529Z,13.5
2022-10-23T21:57:09.539Z,13.4
2022-10-23T22:00:10.051Z,13.4
2022-10-23T22:03:09.561Z,13.3
2022-10-23T22:06:09.606Z,13.2
2022-10-23T22:09:09.575Z,13.1
2022-10-23T22:12:09.581Z,13
2022-10-23T22:15:09.545Z,12.9
2022-10-23T22:18:09.602Z,12.8
2022-10-23T22:21:10.328Z,12.6
2022-10-23T22:24:10.902Z,12.7
2022-10-23T22:27:09.568Z,12.7
2022-10-23T22:30:09.598Z,12.8
2022-10-23T22:33:09.513Z,12.7
2022-10-23T22:36:09.608Z,12.6
2022-10-23T22:39:09.609Z,12.4
2022-10-23T22:42:09.615Z,12.4
2022-10-23T22:45:09.551Z,12.3
2022-10-23T22:48:09.475Z,12.2
2022-10-23T22:51:12.753Z,12.1
2022-10-23T22:54:09.520Z,12.1
2022-10-23T22:57:09.477Z,12
2022-10-23T23:00:09.579Z,11.9
2022-10-23T23:03:10.172Z,11.8
2022-10-23T23:06:09.503Z,11.8
2022-10-23T23:09:09.588Z,11.8
2022-10-23T23:12:09.554Z,11.7
2022-10-23T23:15:09.638Z,11.9
2022-10-23T23:18:09.477Z,12.1
2022-10-23T23:21:09.732Z,12.2
2022-10-23T23:24:09.460Z,12.2
2022-10-23T23:27:09.555Z,12.2
2022-10-23T23:30:09.580Z,12.2
2022-10-23T23:33:09.531Z,12.4
2022-10-23T23:36:09.537Z,12.5
2022-10-23T23:39:10.685Z,12.4
2022-10-23T23:42:09.554Z,12.2
2022-10-23T23:45:22.617Z,12
2022-10-23T23:48:09.487Z,12
2022-10-23T23:51:09.493Z,11.9
2022-10-23T23:54:09.514Z,11.9
2022-10-23T23:57:09.478Z,11.8
